Avon, Minnesota
Current Conditions -  °F | °C
As of 3:53 AM on Tuesday 27 Jan 2015 (Local Time) from KSTC Reporting Station
Overcast Overcast  
Wind Chill: 27°   Ceiling: 1500
Heat Index: 32°   Visibility: 10mi
Dew Point: 25°   Wind: 5mph
Humidity: 75%   Direction: 30°NNE
Pressure: 30.06"   Gusts: NA
Location:  45.61°N, 94.45°W
Report Text: KSTC 270953Z AUTO 03004KT 10SM OVC015 00/M04 A3006 RMK AO2 SLP199 T00001039
Loading
Personal Weather Stations






























Interactive Weather Map New forecast layout! Learn more

10-Day Weather Forecast

Advertisements
Track Severe Weather on mobile